createdAt,value
2023-03-15T00:00:49.272Z,9.98
2023-03-15T00:03:16.418Z,10.80
2023-03-15T00:05:45.176Z,10.80
2023-03-15T00:08:12.595Z,11.70
2023-03-15T00:10:43.192Z,11.45
2023-03-15T00:13:10.671Z,10.95
2023-03-15T00:15:46.114Z,12.10
2023-03-15T00:18:13.814Z,11.63
2023-03-15T00:20:40.765Z,11.93
2023-03-15T00:23:07.964Z,12.18
2023-03-15T00:25:34.841Z,12.35
2023-03-15T00:28:01.536Z,11.93
2023-03-15T00:30:28.555Z,11.70
2023-03-15T00:32:55.837Z,12.10
2023-03-15T00:35:24.043Z,13.25
2023-03-15T00:37:55.402Z,13.48
2023-03-15T00:40:23.254Z,12.95
2023-03-15T00:42:52.262Z,13.88
2023-03-15T00:45:20.936Z,13.70
2023-03-15T00:47:54.656Z,13.40
2023-03-15T00:50:22.998Z,13.65
2023-03-15T00:52:49.964Z,13.32
2023-03-15T00:55:19.009Z,13.25
2023-03-15T00:57:46.822Z,13.10
2023-03-15T01:00:20.329Z,12.23
2023-03-15T01:02:49.763Z,13.57
2023-03-15T01:05:16.772Z,13.57
2023-03-15T01:07:45.701Z,13.25
2023-03-15T01:10:14.329Z,13.43
2023-03-15T01:12:41.666Z,13.48
2023-03-15T01:15:10.547Z,14.40
2023-03-15T01:17:37.556Z,12.50
2023-03-15T01:20:05.657Z,13.50
2023-03-15T01:22:32.615Z,13.27
2023-03-15T01:24:59.451Z,12.23
2023-03-15T01:27:26.196Z,12.88
2023-03-15T01:29:53.024Z,12.90
2023-03-15T01:32:19.849Z,11.80
2023-03-15T01:34:46.874Z,12.55
2023-03-15T01:37:14.710Z,12.95
2023-03-15T01:39:42.624Z,13.25
2023-03-15T01:42:10.714Z,12.85
2023-03-15T01:44:59.973Z,13.27
2023-03-15T01:47:27.907Z,13.77
2023-03-15T01:50:00.405Z,13.45
2023-03-15T01:52:32.031Z,12.82
2023-03-15T01:55:13.997Z,13.10
2023-03-15T01:57:46.730Z,13.73
2023-03-15T02:00:16.806Z,13.25
2023-03-15T02:02:51.927Z,13.55
2023-03-15T02:05:24.048Z,12.65
2023-03-15T02:07:54.705Z,12.82
2023-03-15T02:10:37.077Z,12.45
2023-03-15T02:13:05.184Z,12.45
2023-03-15T02:15:32.388Z,12.57
2023-03-15T02:17:59.246Z,11.95
2023-03-15T02:20:34.340Z,11.10
2023-03-15T02:23:08.302Z,10.85
2023-03-15T02:28:20.254Z,9.85
2023-03-15T02:30:48.419Z,10.02
2023-03-15T02:33:23.953Z,10.10
2023-03-15T02:35:51.443Z,10.13
2023-03-15T02:38:18.472Z,9.65
2023-03-15T02:40:46.773Z,9.13
2023-03-15T02:43:20.439Z,8.98
2023-03-15T02:45:47.907Z,8.55
2023-03-15T02:48:15.502Z,9.57
2023-03-15T02:50:42.716Z,8.40
2023-03-15T02:53:09.657Z,9.02
2023-03-15T02:55:36.375Z,8.77
2023-03-15T02:58:03.203Z,9.13
2023-03-15T03:00:30.891Z,9.40
2023-03-15T03:02:57.756Z,8.98
2023-03-15T03:05:24.784Z,9.00
2023-03-15T03:07:51.686Z,8.23
2023-03-15T03:10:20.414Z,8.95
2023-03-15T03:12:47.572Z,8.68
2023-03-15T03:15:14.356Z,9.00
2023-03-15T03:17:41.128Z,8.75
2023-03-15T03:20:11.681Z,9.57
2023-03-15T03:22:39.131Z,9.43
2023-03-15T03:25:08.226Z,9.45
2023-03-15T03:27:37.800Z,8.90
2023-03-15T03:30:11.545Z,8.88
2023-03-15T03:32:39.553Z,9.60
2023-03-15T03:35:07.672Z,10.05
2023-03-15T03:37:35.891Z,10.07
2023-03-15T03:40:08.339Z,9.73
2023-03-15T03:42:35.907Z,9.45
2023-03-15T03:45:02.768Z,9.27
2023-03-15T03:47:29.569Z,10.57
2023-03-15T03:49:56.284Z,10.20
2023-03-15T03:52:23.969Z,9.52
2023-03-15T03:54:50.967Z,10.10
2023-03-15T03:57:18.025Z,9.98
2023-03-15T03:59:44.764Z,8.93
2023-03-15T04:02:11.537Z,9.40
2023-03-15T04:04:41.372Z,9.10
2023-03-15T04:07:08.649Z,9.13
2023-03-15T04:09:38.160Z,9.00
2023-03-15T04:12:06.381Z,8.18
2023-03-15T04:14:33.322Z,9.10
2023-03-15T04:17:00.172Z,9.20
2023-03-15T04:19:27.179Z,8.45
2023-03-15T04:21:53.975Z,9.23
2023-03-15T04:24:20.932Z,9.10
2023-03-15T04:26:47.738Z,8.65
2023-03-15T04:29:15.352Z,8.18
2023-03-15T04:31:43.286Z,8.65
2023-03-15T04:34:10.187Z,8.13
2023-03-15T04:36:36.956Z,8.68
2023-03-15T04:39:07.543Z,9.02
2023-03-15T04:41:34.910Z,9.48
2023-03-15T04:44:05.446Z,8.25
2023-03-15T04:46:34.042Z,8.77
2023-03-15T04:49:01.843Z,8.35
2023-03-15T04:51:28.926Z,7.68
2023-03-15T04:53:55.670Z,8.38
2023-03-15T04:56:24.037Z,8.23
2023-03-15T04:58:50.827Z,8.27
2023-03-15T05:01:17.686Z,8.02
2023-03-15T05:03:44.473Z,7.68
2023-03-15T05:06:11.362Z,8.27
2023-03-15T05:08:38.146Z,7.72
2023-03-15T05:11:05.322Z,7.82
2023-03-15T05:13:32.119Z,7.75
2023-03-15T05:15:58.954Z,7.15
2023-03-15T05:18:25.768Z,7.28
2023-03-15T05:20:52.841Z,7.57
2023-03-15T05:23:19.545Z,7.50
2023-03-15T05:25:54.191Z,7.40
2023-03-15T05:28:23.615Z,7.22
2023-03-15T05:30:52.277Z,6.85
2023-03-15T05:33:19.812Z,7.40
2023-03-15T05:35:47.039Z,7.85
2023-03-15T05:38:14.572Z,7.80
2023-03-15T05:40:45.141Z,7.88
2023-03-15T05:43:12.518Z,8.00
2023-03-15T05:45:39.521Z,8.35
2023-03-15T05:48:06.699Z,8.07
2023-03-15T05:50:33.888Z,8.50
2023-03-15T05:53:01.028Z,7.85
2023-03-15T05:55:27.821Z,7.97
2023-03-15T05:57:54.657Z,7.25
2023-03-15T06:00:21.878Z,8.00
2023-03-15T06:02:48.697Z,7.97
2023-03-15T06:05:15.641Z,7.35
2023-03-15T06:07:42.493Z,8.02
2023-03-15T06:10:11.200Z,8.57
2023-03-15T06:12:38.208Z,6.97
2023-03-15T06:15:05.613Z,6.70
2023-03-15T06:17:32.679Z,5.80
2023-03-15T06:20:01.991Z,5.03
2023-03-15T06:22:28.756Z,4.50
2023-03-15T06:24:55.642Z,4.03
2023-03-15T06:27:22.466Z,4.70
2023-03-15T06:29:52.335Z,4.47
2023-03-15T06:32:19.109Z,4.50
2023-03-15T06:34:45.894Z,5.20
2023-03-15T06:37:16.365Z,5.13
2023-03-15T06:39:47.242Z,4.50
2023-03-15T06:42:14.364Z,4.50
2023-03-15T06:44:41.671Z,4.55
2023-03-15T06:47:12.280Z,5.35
2023-03-15T06:49:39.097Z,4.10
2023-03-15T06:52:06.812Z,4.32
2023-03-15T06:54:34.088Z,4.50
2023-03-15T06:57:00.874Z,3.95
2023-03-15T06:59:27.630Z,4.70
2023-03-15T07:01:54.464Z,4.75
2023-03-15T07:04:21.694Z,4.60
2023-03-15T07:06:48.494Z,4.93
2023-03-15T07:09:15.273Z,5.00
2023-03-15T07:11:42.086Z,4.55
2023-03-15T07:14:08.915Z,3.92
2023-03-15T07:16:35.708Z,4.30
2023-03-15T07:19:02.955Z,3.90
2023-03-15T07:21:29.826Z,3.80
2023-03-15T07:23:56.757Z,4.80
2023-03-15T07:26:23.549Z,4.05
2023-03-15T07:28:50.661Z,3.80
2023-03-15T07:31:17.845Z,3.65
2023-03-15T07:33:44.616Z,4.03
2023-03-15T07:36:11.441Z,4.10
2023-03-15T07:38:38.290Z,3.97
2023-03-15T07:41:06.432Z,4.10
2023-03-15T07:43:34.165Z,3.58
2023-03-15T07:46:01.688Z,3.80
2023-03-15T07:48:29.719Z,3.30
2023-03-15T07:50:57.250Z,3.75
2023-03-15T07:53:24.141Z,3.55
2023-03-15T07:55:51.171Z,3.42
2023-03-15T07:58:20.273Z,3.45
2023-03-15T08:00:47.434Z,3.03
2023-03-15T08:03:14.490Z,2.60
2023-03-15T08:05:41.375Z,2.80
2023-03-15T08:08:08.166Z,2.45
2023-03-15T08:10:34.949Z,2.60
2023-03-15T08:13:01.861Z,2.30
2023-03-15T08:15:28.859Z,2.10
2023-03-15T08:17:55.686Z,2.28
2023-03-15T08:20:23.616Z,2.03
2023-03-15T08:22:51.536Z,1.77
2023-03-15T08:25:21.037Z,1.30
2023-03-15T08:27:48.108Z,1.80
2023-03-15T08:30:16.079Z,1.23
2023-03-15T08:32:44.954Z,1.00
2023-03-15T08:35:15.471Z,1.10
2023-03-15T08:37:47.918Z,1.10
2023-03-15T08:40:19.141Z,1.40
2023-03-15T08:42:46.318Z,1.20
2023-03-15T08:45:13.406Z,1.10
2023-03-15T08:47:40.186Z,1.23
2023-03-15T08:50:11.019Z,1.10
2023-03-15T08:52:38.316Z,1.23
2023-03-15T08:55:06.083Z,0.98
2023-03-15T08:57:33.389Z,1.13
2023-03-15T09:00:01.875Z,0.90
2023-03-15T09:02:29.346Z,0.60
2023-03-15T09:04:56.190Z,0.90
2023-03-15T09:07:23.054Z,0.70
2023-03-15T09:09:49.868Z,0.50
2023-03-15T09:12:17.533Z,0.47
2023-03-15T09:14:44.715Z,0.60
2023-03-15T09:17:11.588Z,0.80
2023-03-15T09:19:39.247Z,1.30
2023-03-15T09:22:16.357Z,0.60
2023-03-15T09:27:19.032Z,0.50
2023-03-15T09:29:45.834Z,0.40
2023-03-15T09:32:13.398Z,0.82
2023-03-15T09:34:42.433Z,0.50
2023-03-15T09:37:09.821Z,0.50
2023-03-15T09:39:36.596Z,0.40
2023-03-15T09:42:08.009Z,0.32
2023-03-15T09:45:07.422Z,1.05
2023-03-15T09:47:37.200Z,0.75
2023-03-15T09:50:07.938Z,0.80
2023-03-15T09:52:48.948Z,0.70
2023-03-15T09:55:24.554Z,0.60
2023-03-15T09:57:58.559Z,0.82
2023-03-15T10:03:27.584Z,0.77
2023-03-15T10:06:01.416Z,0.80
2023-03-15T10:08:28.238Z,1.20
2023-03-15T10:11:06.680Z,1.23
2023-03-15T10:13:42.508Z,1.17
2023-03-15T10:16:41.092Z,1.38
2023-03-15T10:19:15.594Z,1.23
2023-03-15T10:22:09.670Z,1.20
2023-03-15T10:24:45.446Z,1.48
2023-03-15T10:27:26.056Z,1.50
2023-03-15T10:29:57.470Z,1.30
2023-03-15T10:32:30.019Z,1.30
2023-03-15T10:34:58.856Z,1.30
2023-03-15T10:37:26.157Z,1.38
2023-03-15T10:39:59.053Z,1.42
2023-03-15T10:42:27.099Z,1.50
2023-03-15T10:44:53.906Z,1.38
2023-03-15T10:47:24.300Z,1.60
2023-03-15T10:49:58.996Z,1.40
2023-03-15T10:52:27.390Z,1.50
2023-03-15T10:54:58.758Z,1.65
2023-03-15T10:57:37.159Z,1.30
2023-03-15T11:00:25.082Z,1.50
2023-03-15T11:03:02.284Z,1.20
2023-03-15T11:05:43.311Z,1.30
2023-03-15T11:08:19.175Z,1.10
2023-03-15T11:10:55.477Z,1.13
2023-03-15T11:13:25.477Z,1.13
2023-03-15T11:16:04.528Z,1.50
2023-03-15T11:18:38.182Z,1.30
2023-03-15T11:21:11.621Z,1.02
2023-03-15T11:23:42.775Z,1.17
2023-03-15T11:26:29.397Z,1.25
2023-03-15T11:29:08.096Z,1.48
2023-03-15T11:31:36.273Z,1.63
2023-03-15T11:34:24.312Z,1.17
2023-03-15T11:37:07.022Z,1.38
2023-03-15T11:39:45.229Z,1.10
2023-03-15T11:42:22.141Z,0.98
2023-03-15T11:44:55.035Z,1.40
2023-03-15T11:47:43.347Z,1.30
2023-03-15T11:50:14.696Z,1.10
2023-03-15T11:52:42.982Z,1.02
2023-03-15T11:55:24.228Z,1.30
2023-03-15T11:57:52.136Z,1.05
2023-03-15T12:00:22.185Z,1.00
2023-03-15T12:02:52.045Z,1.20
2023-03-15T12:05:43.542Z,0.98
2023-03-15T12:08:21.252Z,1.00
2023-03-15T12:10:49.795Z,1.00
2023-03-15T12:13:24.953Z,1.10
2023-03-15T12:15:53.252Z,1.02
2023-03-15T12:18:25.392Z,1.10
2023-03-15T12:21:06.583Z,1.10
2023-03-15T12:23:40.259Z,1.00
2023-03-15T12:26:29.839Z,1.00
2023-03-15T12:29:05.228Z,1.00
2023-03-15T12:31:45.031Z,0.98
2023-03-15T12:34:37.723Z,1.00
2023-03-15T12:37:08.674Z,0.50
2023-03-15T12:39:49.736Z,0.32
2023-03-15T12:42:31.793Z,0.38
2023-03-15T12:45:16.950Z,0.38
2023-03-15T12:48:06.678Z,0.50
2023-03-15T12:50:46.203Z,0.55
2023-03-15T12:53:15.982Z,0.60
2023-03-15T12:55:45.020Z,0.50
2023-03-15T12:58:16.001Z,0.60
2023-03-15T13:00:43.889Z,0.32
2023-03-15T13:03:25.725Z,0.40
2023-03-15T13:06:04.255Z,0.45
2023-03-15T13:08:47.452Z,0.40
2023-03-15T13:11:26.414Z,0.40
2023-03-15T13:13:59.177Z,0.68
2023-03-15T13:16:35.756Z,0.45
2023-03-15T13:19:19.882Z,0.40
2023-03-15T13:22:09.527Z,0.40
2023-03-15T13:25:02.213Z,0.93
2023-03-15T13:27:55.109Z,0.30
2023-03-15T13:30:39.196Z,1.15
2023-03-15T13:33:24.589Z,0.80
2023-03-15T13:36:03.753Z,1.35
2023-03-15T13:38:35.513Z,1.13
2023-03-15T13:41:05.280Z,1.20
2023-03-15T13:43:38.163Z,1.17
2023-03-15T13:46:05.876Z,1.10
2023-03-15T13:48:40.909Z,1.30
2023-03-15T13:51:25.888Z,1.35
2023-03-15T13:53:55.975Z,1.35
2023-03-15T13:56:55.643Z,1.10
2023-03-15T13:59:32.693Z,1.40
2023-03-15T14:02:02.486Z,1.25
2023-03-15T14:04:31.644Z,1.13
2023-03-15T14:07:18.815Z,1.00
2023-03-15T14:09:45.944Z,1.20
2023-03-15T14:12:22.866Z,1.20
2023-03-15T14:14:52.358Z,1.60
2023-03-15T14:17:28.022Z,1.50
2023-03-15T14:20:06.911Z,1.60
2023-03-15T14:22:35.919Z,1.42
2023-03-15T14:25:04.515Z,1.70
2023-03-15T14:27:33.132Z,1.55
2023-03-15T14:30:02.592Z,1.75
2023-03-15T14:32:34.911Z,1.83
2023-03-15T14:35:37.285Z,2.33
2023-03-15T14:38:19.611Z,2.00
2023-03-15T14:40:47.018Z,2.53
2023-03-15T14:43:14.676Z,2.40
2023-03-15T14:45:43.705Z,2.40
2023-03-15T14:48:28.340Z,2.40
2023-03-15T14:50:56.169Z,2.47
2023-03-15T14:53:26.313Z,2.53
2023-03-15T14:55:53.120Z,2.60
2023-03-15T14:58:21.648Z,2.47
2023-03-15T15:00:55.345Z,2.30
2023-03-15T15:03:45.829Z,2.10
2023-03-15T15:06:17.367Z,1.92
2023-03-15T15:08:48.442Z,2.00
2023-03-15T15:11:15.769Z,1.73
2023-03-15T15:13:42.857Z,1.80
2023-03-15T15:16:09.728Z,1.40
2023-03-15T15:18:37.562Z,1.00
2023-03-15T15:21:25.403Z,0.82
2023-03-15T15:23:58.615Z,0.98
2023-03-15T15:26:28.249Z,1.00
2023-03-15T15:28:56.416Z,0.98
2023-03-15T15:31:24.888Z,1.20
2023-03-15T15:33:52.883Z,0.90
2023-03-15T15:36:41.602Z,1.30
2023-03-15T15:39:34.687Z,1.05
2023-03-15T15:42:01.473Z,1.00
2023-03-15T15:44:28.275Z,1.20
2023-03-15T15:46:55.186Z,1.67
2023-03-15T15:49:22.019Z,0.85
2023-03-15T15:51:50.060Z,0.98
2023-03-15T15:54:19.751Z,1.10
2023-03-15T15:56:57.151Z,0.98
2023-03-15T15:59:25.754Z,0.93
2023-03-15T16:02:02.747Z,1.02
2023-03-15T16:04:30.497Z,0.80
2023-03-15T16:07:01.627Z,0.80
2023-03-15T16:09:30.756Z,0.90
2023-03-15T16:11:58.162Z,1.00
2023-03-15T16:14:24.921Z,1.30
2023-03-15T16:16:51.747Z,1.13
2023-03-15T16:19:18.560Z,0.90
2023-03-15T16:21:49.032Z,0.73
2023-03-15T16:24:26.151Z,0.98
2023-03-15T16:26:59.140Z,1.25
2023-03-15T16:29:37.805Z,1.35
2023-03-15T16:32:17.593Z,0.93
2023-03-15T16:34:48.749Z,0.65
2023-03-15T16:37:20.145Z,0.73
2023-03-15T16:39:48.837Z,0.85
2023-03-15T16:42:17.452Z,0.80
2023-03-15T16:44:44.590Z,0.70
2023-03-15T16:47:11.620Z,0.75
2023-03-15T16:49:38.407Z,0.70
2023-03-15T16:52:07.481Z,0.55
2023-03-15T16:54:41.438Z,0.50
2023-03-15T16:57:22.863Z,0.50
2023-03-15T16:59:50.508Z,0.80
2023-03-15T17:02:25.871Z,1.05
2023-03-15T17:04:53.057Z,0.65
2023-03-15T17:07:23.804Z,0.50
2023-03-15T17:09:50.727Z,0.70
2023-03-15T17:12:28.798Z,0.65
2023-03-15T17:15:00.038Z,0.35
2023-03-15T17:17:33.144Z,0.50
2023-03-15T17:20:00.497Z,0.65
2023-03-15T17:22:27.497Z,0.70
2023-03-15T17:24:54.698Z,0.40
2023-03-15T17:27:35.598Z,0.70
2023-03-15T17:30:02.477Z,0.60
2023-03-15T17:32:29.341Z,0.73
2023-03-15T17:34:59.129Z,0.57
2023-03-15T17:37:28.598Z,0.60
2023-03-15T17:39:55.489Z,0.70
2023-03-15T17:42:22.238Z,0.60
2023-03-15T17:44:49.044Z,0.60
2023-03-15T17:47:16.009Z,0.50
2023-03-15T17:49:42.797Z,0.70
2023-03-15T17:52:19.339Z,0.70
2023-03-15T17:54:46.178Z,0.70
2023-03-15T17:57:13.242Z,0.95
2023-03-15T17:59:40.145Z,0.60
2023-03-15T18:02:17.415Z,0.68
2023-03-15T18:04:44.211Z,0.95
2023-03-15T18:07:11.015Z,0.90
2023-03-15T18:09:37.829Z,0.80
2023-03-15T18:12:04.834Z,1.10
2023-03-15T18:14:37.066Z,1.20
2023-03-15T18:17:04.299Z,1.05
2023-03-15T18:19:31.222Z,1.20
2023-03-15T18:21:57.951Z,1.15
2023-03-15T18:24:24.786Z,1.25
2023-03-15T18:26:52.812Z,1.30
2023-03-15T18:29:19.614Z,1.38
2023-03-15T18:31:46.480Z,1.15
2023-03-15T18:34:15.788Z,1.40
2023-03-15T18:36:42.605Z,1.35
2023-03-15T18:39:09.638Z,1.05
2023-03-15T18:41:36.530Z,1.42
2023-03-15T18:44:03.792Z,1.50
2023-03-15T18:46:31.800Z,1.70
2023-03-15T18:48:59.250Z,1.70
2023-03-15T18:51:28.182Z,1.50
2023-03-15T18:53:55.712Z,1.58
2023-03-15T18:56:26.608Z,1.40
2023-03-15T18:58:54.755Z,1.90
2023-03-15T19:01:23.170Z,1.80
2023-03-15T19:03:51.457Z,1.90
2023-03-15T19:06:18.647Z,3.95
2023-03-15T19:08:45.464Z,1.38
2023-03-15T19:11:12.532Z,2.17
2023-03-15T19:13:39.389Z,6.95
2023-03-15T19:16:06.390Z,16.23
2023-03-15T19:18:33.922Z,2.90
2023-03-15T19:21:01.708Z,7.30
2023-03-15T19:23:28.552Z,7.47
2023-03-15T19:25:55.418Z,9.07
2023-03-15T19:28:22.232Z,8.73
2023-03-15T19:30:49.231Z,5.28
2023-03-15T19:33:16.584Z,7.30
2023-03-15T19:35:43.428Z,3.45
2023-03-15T19:38:10.305Z,2.80
2023-03-15T19:40:37.539Z,2.90
2023-03-15T19:43:04.339Z,3.10
2023-03-15T19:45:31.296Z,3.15
2023-03-15T19:47:58.095Z,2.50
2023-03-15T19:50:24.923Z,2.90
2023-03-15T19:52:51.745Z,2.55
2023-03-15T19:55:20.328Z,2.80
2023-03-15T19:57:47.750Z,2.80
2023-03-15T20:00:17.833Z,2.42
2023-03-15T20:02:45.493Z,2.53
2023-03-15T20:05:15.120Z,2.40
2023-03-15T20:07:43.480Z,2.40
2023-03-15T20:10:12.577Z,2.50
2023-03-15T20:12:42.870Z,2.53
2023-03-15T20:15:12.126Z,4.70
2023-03-15T20:17:39.931Z,3.20
2023-03-15T20:20:10.296Z,2.60
2023-03-15T20:22:42.198Z,2.47
2023-03-15T20:25:14.510Z,2.90
2023-03-15T20:27:41.953Z,4.43
2023-03-15T20:30:12.782Z,4.88
2023-03-15T20:32:39.897Z,4.60
2023-03-15T20:35:09.527Z,4.53
2023-03-15T20:37:40.657Z,4.15
2023-03-15T20:40:13.076Z,4.32
2023-03-15T20:42:41.172Z,4.18
2023-03-15T20:45:10.195Z,3.85
2023-03-15T20:47:38.335Z,3.70
2023-03-15T20:50:07.326Z,4.05
2023-03-15T20:52:34.333Z,4.72
2023-03-15T20:55:01.349Z,4.65
2023-03-15T20:57:28.169Z,4.15
2023-03-15T20:59:54.954Z,4.57
2023-03-15T21:02:22.507Z,4.22
2023-03-15T21:04:49.447Z,3.95
2023-03-15T21:07:16.263Z,4.35
2023-03-15T21:09:44.118Z,4.30
2023-03-15T21:12:11.273Z,3.67
2023-03-15T21:14:38.197Z,4.60
2023-03-15T21:17:05.140Z,4.50
2023-03-15T21:19:31.915Z,4.93
2023-03-15T21:22:00.318Z,4.20
2023-03-15T21:24:31.192Z,3.33
2023-03-15T21:26:58.237Z,2.88
2023-03-15T21:29:24.997Z,2.58
2023-03-15T21:31:54.405Z,2.30
2023-03-15T21:34:21.252Z,1.90
2023-03-15T21:36:48.057Z,2.40
2023-03-15T21:39:14.951Z,2.40
2023-03-15T21:41:41.721Z,1.67
2023-03-15T21:44:08.543Z,2.20
2023-03-15T21:46:36.326Z,3.60
2023-03-15T21:49:04.083Z,15.10
2023-03-15T21:51:34.210Z,4.70
2023-03-15T21:54:01.385Z,2.92
2023-03-15T21:56:28.687Z,3.20
2023-03-15T21:58:55.608Z,2.85
2023-03-15T22:01:22.892Z,3.22
2023-03-15T22:03:53.269Z,2.75
2023-03-15T22:06:21.723Z,2.47
2023-03-15T22:08:49.870Z,2.70
2023-03-15T22:11:17.226Z,2.40
2023-03-15T22:13:45.470Z,2.70
2023-03-15T22:16:12.462Z,3.10
2023-03-15T22:18:39.606Z,2.88
2023-03-15T22:21:07.028Z,2.70
2023-03-15T22:23:33.818Z,3.70
2023-03-15T22:26:00.802Z,3.40
2023-03-15T22:28:27.781Z,3.88
2023-03-15T22:30:54.806Z,3.75
2023-03-15T22:33:22.730Z,4.00
2023-03-15T22:35:57.618Z,3.60
2023-03-15T22:38:25.621Z,4.07
2023-03-15T22:41:01.538Z,4.03
2023-03-15T22:43:28.516Z,3.72
2023-03-15T22:45:55.391Z,4.50
2023-03-15T22:48:22.971Z,3.42
2023-03-15T22:51:00.659Z,4.00
2023-03-15T22:53:28.283Z,3.72
2023-03-15T22:55:55.175Z,3.80
2023-03-15T22:58:22.358Z,3.95
2023-03-15T23:00:49.145Z,3.50
2023-03-15T23:03:16.357Z,4.03
2023-03-15T23:05:43.574Z,3.83
2023-03-15T23:08:10.648Z,3.80
2023-03-15T23:10:37.556Z,4.38
2023-03-15T23:13:04.464Z,4.00
2023-03-15T23:15:31.397Z,3.90
2023-03-15T23:17:58.250Z,3.92
2023-03-15T23:20:26.171Z,3.65
2023-03-15T23:22:53.816Z,3.60
2023-03-15T23:25:22.502Z,4.22
2023-03-15T23:27:50.462Z,3.75
2023-03-15T23:30:17.694Z,3.85
2023-03-15T23:32:44.511Z,3.58
2023-03-15T23:35:12.649Z,3.40
2023-03-15T23:37:40.410Z,3.40
2023-03-15T23:40:15.785Z,3.35
2023-03-15T23:42:43.963Z,3.63
2023-03-15T23:45:12.318Z,4.07
2023-03-15T23:47:39.554Z,3.63
2023-03-15T23:50:08.159Z,3.05
2023-03-15T23:52:35.857Z,3.10
2023-03-15T23:55:02.642Z,2.92
2023-03-15T23:57:29.755Z,3.20
2023-03-15T23:59:56.575Z,3.45
